Time;durP1;ratioP1;P1;durP2;ratioP2;P2;SDS_P1;SDS_P2;PMS_P1;PMS_P2;Temp;Humidity;BMP_temperature;BMP_pressure;BME280_temperature;BME280_humidity;BME280_pressure;Samples;Min_cycle;Max_cycle;Signal;HPM_P1;HPM_P2
2021/07/16 00:00:58;;;;;;;;;;;;;;;21.22;71.63;97951.24;1738845;82;21959;-88
2021/07/16 00:03:19;;;;;;;;;;;;;;;21.12;71.67;97948.81;1736661;82;26021;-88
2021/07/16 00:05:45;;;;;;;;;;;;;;;21.15;71.69;97947.16;1741473;82;20281;-87
2021/07/16 00:08:11;;;;;;;;;;;;;;;21.24;71.75;97962.01;1733795;82;20224;-87
2021/07/16 00:10:37;;;;;;;;;;;;;;;21.21;71.77;97961.06;1739324;82;24990;-88
2021/07/16 00:13:03;;;;;;;;;;;;;;;21.07;71.82;97968.50;1741308;82;22298;-88
2021/07/16 00:15:33;;;;;;;;;;;;;;;20.93;71.85;97966.69;1742780;82;25980;-88
2021/07/16 00:17:58;;;;;;;;;;;;;;;20.84;71.87;97973.09;1736630;82;24718;-88
2021/07/16 00:20:24;;;;;;;;;;;;;;;20.79;71.89;97968.82;1742218;82;20357;-88
2021/07/16 00:22:50;;;;;;;;;;;;;;;20.90;71.96;97961.72;1736753;82;20183;-88
2021/07/16 00:25:16;;;;;;;;;;;;;;;20.97;71.98;97965.30;1741506;82;20900;-88
2021/07/16 00:27:45;;;;;;;;;;;;;;;20.99;72.00;97961.97;1741185;82;21708;-88
2021/07/16 00:30:20;;;;;;;;;;;;;;;21.05;71.98;97960.41;1741858;82;25319;-88
2021/07/16 00:32:48;;;;;;;;;;;;;;;21.11;71.96;97961.80;1737536;82;20481;-88
2021/07/16 00:35:17;;;;;;;;;;;;;;;21.15;71.93;97960.97;1738960;82;25677;-88
2021/07/16 00:37:49;;;;;;;;;;;;;;;21.16;71.89;97963.96;1731880;82;22637;-87
2021/07/16 00:40:16;;;;;;;;;;;;;;;21.12;71.86;97965.28;1743228;82;26003;-87
2021/07/16 00:42:53;;;;;;;;;;;;;;;21.07;71.77;97962.36;1738940;82;25236;-87
2021/07/16 00:45:19;;;;;;;;;;;;;;;21.00;71.73;97956.14;1739287;82;20572;-87
2021/07/16 00:47:54;;;;;;;;;;;;;;;20.91;71.69;97966.53;1742985;82;25660;-87
2021/07/16 00:50:22;;;;;;;;;;;;;;;20.82;71.67;97963.98;1740900;82;22008;-86
2021/07/16 00:52:48;;;;;;;;;;;;;;;20.78;71.66;97964.53;1741086;82;26671;-86
2021/07/16 00:55:16;;;;;;;;;;;;;;;20.72;71.73;97965.27;1735921;80;20339;-86
2021/07/16 00:57:42;;;;;;;;;;;;;;;20.67;71.79;97959.67;1739723;81;20599;-87
2021/07/16 01:00:09;;;;;;;;;;;;;;;20.66;71.88;97949.53;1762136;80;25074;-87
2021/07/16 01:02:35;;;;;;;;;;;;;;;20.67;71.93;97953.84;1763146;81;21999;-87
2021/07/16 01:05:01;;;;;;;;;;;;;;;20.65;71.98;97958.51;1761272;81;21052;-87
2021/07/16 01:07:27;;;;;;;;;;;;;;;20.48;72.01;97960.17;1763613;81;25436;-87
2021/07/16 01:09:53;;;;;;;;;;;;;;;20.31;72.02;97959.00;1763178;80;20298;-87
2021/07/16 01:12:27;;;;;;;;;;;;;;;20.31;72.09;97953.69;1762906;81;25032;-87
2021/07/16 01:14:59;;;;;;;;;;;;;;;20.35;72.23;97964.27;1759639;80;21985;-87
2021/07/16 01:17:25;;;;;;;;;;;;;;;20.32;72.29;97943.88;1760854;81;26788;-87
2021/07/16 01:19:52;;;;;;;;;;;;;;;20.40;72.39;97941.96;1758498;80;24516;-87
2021/07/16 01:22:20;;;;;;;;;;;;;;;20.35;72.49;97944.34;1761801;81;20328;-87
2021/07/16 01:24:47;;;;;;;;;;;;;;;20.34;72.58;97945.38;1761636;81;27499;-87
2021/07/16 01:27:13;;;;;;;;;;;;;;;20.31;72.68;97959.47;1738229;81;22017;-87
2021/07/16 01:29:39;;;;;;;;;;;;;;;20.23;72.73;97956.90;1761749;81;26049;-87
2021/07/16 01:32:06;;;;;;;;;;;;;;;20.17;72.84;97954.45;1763235;80;24511;-87
2021/07/16 01:34:32;;;;;;;;;;;;;;;20.20;72.94;97951.42;1759025;81;20249;-88
2021/07/16 01:36:58;;;;;;;;;;;;;;;20.30;73.03;97950.67;1762585;81;20859;-88
2021/07/16 01:39:24;;;;;;;;;;;;;;;20.38;73.08;97953.30;1763071;81;20335;-88
2021/07/16 01:41:50;;;;;;;;;;;;;;;20.39;73.13;97949.64;1763240;80;21193;-88
2021/07/16 01:44:16;;;;;;;;;;;;;;;20.42;73.17;97946.61;1763423;81;20226;-88
2021/07/16 01:46:42;;;;;;;;;;;;;;;20.40;73.19;97945.16;1737403;81;20207;-88
2021/07/16 01:49:08;;;;;;;;;;;;;;;20.39;73.21;97939.51;1763061;81;24941;-88
2021/07/16 01:51:39;;;;;;;;;;;;;;;20.32;73.24;97936.73;1764080;81;22122;-87
2021/07/16 01:54:08;;;;;;;;;;;;;;;20.28;73.26;97927.45;1764422;81;26939;-85
2021/07/16 01:56:34;;;;;;;;;;;;;;;20.26;73.25;97937.42;1760113;80;25552;-85
2021/07/16 01:59:03;;;;;;;;;;;;;;;20.25;73.25;97941.08;1764362;81;20812;-83
2021/07/16 02:01:30;;;;;;;;;;;;;;;20.24;73.28;97938.59;1757347;81;25143;-83
2021/07/16 02:03:56;;;;;;;;;;;;;;;20.24;73.27;97936.77;1763463;81;22087;-84
2021/07/16 02:06:22;;;;;;;;;;;;;;;20.25;73.30;97938.92;1763055;79;21158;-84
2021/07/16 02:08:48;;;;;;;;;;;;;;;20.24;73.29;97939.42;1762125;80;24476;-84
2021/07/16 02:11:21;;;;;;;;;;;;;;;20.26;73.31;97933.44;1761566;81;20155;-84
2021/07/16 02:13:51;;;;;;;;;;;;;;;20.27;73.31;97943.06;1764210;81;25743;-84
2021/07/16 02:16:19;;;;;;;;;;;;;;;20.29;73.30;97948.21;1764159;81;22038;-83
2021/07/16 02:18:50;;;;;;;;;;;;;;;20.28;73.33;97954.03;1764541;81;26217;-84
2021/07/16 02:21:16;;;;;;;;;;;;;;;20.27;73.34;97949.71;1759915;81;24526;-84
2021/07/16 02:23:42;;;;;;;;;;;;;;;20.27;73.36;97943.56;1762726;81;20493;-83
2021/07/16 02:26:15;;;;;;;;;;;;;;;20.24;73.34;97935.44;1760223;81;25755;-84
2021/07/16 02:28:43;;;;;;;;;;;;;;;20.20;73.38;97938.14;1735798;81;20151;-84
2021/07/16 02:31:11;;;;;;;;;;;;;;;20.18;73.40;97937.52;1761328;81;26028;-84
2021/07/16 02:33:41;;;;;;;;;;;;;;;20.15;73.39;97943.17;1761103;81;25201;-84
2021/07/16 02:36:08;;;;;;;;;;;;;;;20.08;73.42;97947.53;1759070;79;20465;-84
2021/07/16 02:38:37;;;;;;;;;;;;;;;20.03;73.46;97941.94;1760858;81;25755;-84
2021/07/16 02:41:10;;;;;;;;;;;;;;;19.99;73.48;97945.46;1758422;80;22053;-84
2021/07/16 02:43:38;;;;;;;;;;;;;;;19.92;73.52;97955.63;1758869;81;26386;-84
2021/07/16 02:46:04;;;;;;;;;;;;;;;19.90;73.59;97951.85;1763513;81;24555;-84
2021/07/16 02:48:30;;;;;;;;;;;;;;;19.96;73.63;97951.14;1761215;81;20563;-84
2021/07/16 02:50:56;;;;;;;;;;;;;;;19.97;73.64;97953.27;1737427;81;24945;-83
2021/07/16 02:53:22;;;;;;;;;;;;;;;19.93;73.67;97948.83;1762674;81;20348;-83
2021/07/16 02:55:49;;;;;;;;;;;;;;;19.95;73.72;97945.50;1761950;81;20877;-83
2021/07/16 02:58:17;;;;;;;;;;;;;;;19.94;73.77;97952.31;1762663;79;24412;-84
2021/07/16 03:00:43;;;;;;;;;;;;;;;19.97;73.81;97951.94;1762713;81;20213;-84
2021/07/16 03:03:15;;;;;;;;;;;;;;;20.01;73.85;97950.61;1760893;81;24934;-87
2021/07/16 03:05:41;;;;;;;;;;;;;;;20.01;73.86;97954.09;1757962;80;22079;-87
2021/07/16 03:08:13;;;;;;;;;;;;;;;20.03;73.92;97941.94;1760275;80;20954;-87
2021/07/16 03:10:40;;;;;;;;;;;;;;;20.06;73.94;97944.25;1761130;81;24449;-87
2021/07/16 03:13:09;;;;;;;;;;;;;;;20.10;73.94;97950.85;1763159;81;20182;-87
2021/07/16 03:15:36;;;;;;;;;;;;;;;20.10;74.00;97949.52;1760199;81;24992;-88
2021/07/16 03:18:04;;;;;;;;;;;;;;;20.10;73.98;97946.87;1762906;81;21955;-88
2021/07/16 03:20:32;;;;;;;;;;;;;;;20.03;73.99;97946.75;1757238;81;26819;-88
2021/07/16 03:23:02;;;;;;;;;;;;;;;19.95;74.00;97940.19;1763547;81;24423;-87
2021/07/16 03:25:28;;;;;;;;;;;;;;;19.85;74.00;97942.77;1759833;81;20223;-88
2021/07/16 03:27:55;;;;;;;;;;;;;;;19.77;74.00;97937.00;1762719;81;25218;-87
2021/07/16 03:30:23;;;;;;;;;;;;;;;19.72;74.01;97935.87;1760343;80;22077;-87
2021/07/16 03:32:50;;;;;;;;;;;;;;;19.66;74.07;97932.59;1762615;81;26910;-87
2021/07/16 03:35:22;;;;;;;;;;;;;;;19.62;74.09;97935.62;1760936;81;24635;-88
2021/07/16 03:37:57;;;;;;;;;;;;;;;19.58;74.17;97932.17;1762279;79;20218;-87
2021/07/16 03:40:30;;;;;;;;;;;;;;;19.57;74.19;97935.81;1700891;84;24966;-88
2021/07/16 03:43:02;;;;;;;;;;;;;;;19.53;74.26;97933.99;1701608;84;21952;-88
2021/07/16 03:45:28;;;;;;;;;;;;;;;19.53;74.33;97936.65;1723467;82;26291;-88
2021/07/16 03:47:54;;;;;;;;;;;;;;;19.51;74.42;97938.67;1730610;82;24594;-87
2021/07/16 03:50:21;;;;;;;;;;;;;;;19.51;74.50;97941.33;1729107;82;20802;-87
2021/07/16 03:53:02;;;;;;;;;;;;;;;19.50;74.57;97945.48;1695834;84;25027;-88
2021/07/16 03:55:40;;;;;;;;;;;;;;;19.49;74.67;97949.13;1733125;82;22091;-88
2021/07/16 03:58:06;;;;;;;;;;;;;;;19.53;74.75;97957.05;1732362;82;25962;-87
2021/07/16 04:00:34;;;;;;;;;;;;;;;19.62;74.84;97957.35;1732165;82;24472;-87
2021/07/16 04:03:22;;;;;;;;;;;;;;;19.71;74.94;97952.30;1725129;82;20323;-87
2021/07/16 04:05:50;;;;;;;;;;;;;;;19.77;75.00;97954.75;1727123;83;25003;-88
2021/07/16 04:08:25;;;;;;;;;;;;;;;19.81;75.07;97964.84;1729054;83;21917;-87
2021/07/16 04:11:12;;;;;;;;;;;;;;;19.84;75.11;97972.97;1719332;83;26877;-87
2021/07/16 04:13:53;;;;;;;;;;;;;;;19.91;75.14;97984.55;1723817;83;25250;-88
2021/07/16 04:16:19;;;;;;;;;;;;;;;19.92;75.21;97991.49;1723910;83;20222;-84
2021/07/16 04:18:45;;;;;;;;;;;;;;;20.05;75.28;97991.24;1700105;83;24797;-84
2021/07/16 04:21:11;;;;;;;;;;;;;;;20.15;75.32;97990.16;1727952;83;20287;-84
2021/07/16 04:23:39;;;;;;;;;;;;;;;20.25;75.33;97997.39;1725018;83;39119;-84
2021/07/16 04:26:06;;;;;;;;;;;;;;;20.33;75.36;97997.37;1720569;83;20902;-84
2021/07/16 04:28:32;;;;;;;;;;;;;;;20.34;75.34;97995.87;1717418;82;20519;-84
2021/07/16 04:30:58;;;;;;;;;;;;;;;20.35;75.29;97995.34;1724033;83;24947;-84
2021/07/16 04:33:24;;;;;;;;;;;;;;;20.33;75.25;97993.38;1728063;83;20355;-84
2021/07/16 04:35:50;;;;;;;;;;;;;;;20.34;75.22;97995.87;1719347;83;26598;-84
2021/07/16 04:38:17;;;;;;;;;;;;;;;20.34;75.20;97994.54;1729419;83;25922;-84
2021/07/16 04:40:43;;;;;;;;;;;;;;;20.35;75.19;97999.32;1723250;83;20404;-84
2021/07/16 04:43:10;;;;;;;;;;;;;;;20.35;75.17;97997.50;1722071;83;20869;-84
2021/07/16 04:45:43;;;;;;;;;;;;;;;20.40;75.19;98000.97;1726240;81;22071;-83
2021/07/16 04:48:07;;;;;;;;;;;;;;;20.41;75.20;98009.24;1720663;83;26018;-83
2021/07/16 04:50:39;;;;;;;;;;;;;;;20.40;75.25;98014.26;1694714;83;24529;-83
2021/07/16 04:53:05;;;;;;;;;;;;;;;20.49;75.30;98017.66;1729921;82;20315;-83
2021/07/16 04:55:31;;;;;;;;;;;;;;;20.60;75.36;98017.23;1728536;81;20756;-83
2021/07/16 04:57:57;;;;;;;;;;;;;;;20.68;75.38;98014.48;1713633;81;20825;-83
2021/07/16 05:00:24;;;;;;;;;;;;;;;20.73;75.36;98018.25;1723540;81;26065;-83
2021/07/16 05:02:56;;;;;;;;;;;;;;;20.81;75.37;98018.18;1727013;81;25240;-84
2021/07/16 05:05:22;;;;;;;;;;;;;;;20.91;75.39;98020.56;1725213;82;20245;-84
2021/07/16 05:07:48;;;;;;;;;;;;;;;20.97;75.40;98022.50;1702939;83;24708;-84
2021/07/16 05:10:17;;;;;;;;;;;;;;;21.06;75.38;98025.89;1723945;83;20910;-84
2021/07/16 05:12:43;;;;;;;;;;;;;;;21.12;75.34;98023.83;1725060;83;26133;-84
2021/07/16 05:15:15;;;;;;;;;;;;;;;21.21;75.33;98031.59;1727062;81;24515;-84
2021/07/16 05:17:41;;;;;;;;;;;;;;;21.24;75.29;98035.70;1725538;83;20213;-84
2021/07/16 05:20:08;;;;;;;;;;;;;;;21.24;75.25;98035.70;1726651;83;20240;-84
2021/07/16 05:22:34;;;;;;;;;;;;;;;21.26;75.20;98026.54;1725573;83;22038;-84
2021/07/16 05:25:00;;;;;;;;;;;;;;;21.31;75.15;98034.47;1726849;82;25954;-84
2021/07/16 05:27:26;;;;;;;;;;;;;;;21.35;75.15;98033.08;1727893;83;24431;-84
2021/07/16 05:29:54;;;;;;;;;;;;;;;21.33;75.12;98042.58;1728777;82;20375;-84
2021/07/16 05:32:22;;;;;;;;;;;;;;;21.36;75.10;98037.41;1727249;83;25078;-84
2021/07/16 05:34:48;;;;;;;;;;;;;;;21.44;75.10;98033.33;1716550;83;21994;-84
2021/07/16 05:37:14;;;;;;;;;;;;;;;21.49;75.09;98046.91;1715396;83;20912;-85
2021/07/16 05:39:40;;;;;;;;;;;;;;;21.52;75.10;98049.19;1712673;83;24516;-85
2021/07/16 05:42:06;;;;;;;;;;;;;;;21.54;75.08;98053.83;1707383;82;20244;-84
2021/07/16 05:44:38;;;;;;;;;;;;;;;21.59;75.07;98058.92;1733656;82;25142;-85
2021/07/16 05:47:09;;;;;;;;;;;;;;;21.69;75.06;98055.95;1709705;83;22086;-85
2021/07/16 05:49:37;;;;;;;;;;;;;;;21.75;75.07;98061.88;1696078;84;26042;-84
2021/07/16 05:52:03;;;;;;;;;;;;;;;21.76;75.04;98054.71;1700147;84;25237;-85
2021/07/16 05:54:29;;;;;;;;;;;;;;;21.81;75.00;98067.80;1723927;83;20646;-85
2021/07/16 05:56:55;;;;;;;;;;;;;;;21.88;74.96;98068.67;1732603;82;20344;-84
2021/07/16 05:59:21;;;;;;;;;;;;;;;21.97;74.90;98068.11;1702554;81;21985;-84
2021/07/16 06:01:47;;;;;;;;;;;;;;;22.03;74.85;98072.19;1696303;84;20997;-84
2021/07/16 06:04:13;;;;;;;;;;;;;;;22.02;74.79;98067.86;1699171;84;24435;-84
2021/07/16 06:06:39;;;;;;;;;;;;;;;21.91;74.70;98064.83;1738832;82;20155;-84
2021/07/16 06:09:05;;;;;;;;;;;;;;;21.89;74.59;98074.83;1740039;82;24970;-85
2021/07/16 06:11:32;;;;;;;;;;;;;;;21.93;74.57;98079.59;1736970;81;21974;-85
2021/07/16 06:13:59;;;;;;;;;;;;;;;22.01;74.55;98076.86;1741541;81;25998;-85
2021/07/16 06:16:25;;;;;;;;;;;;;;;22.18;74.54;98079.30;1734955;82;24609;-85
2021/07/16 06:18:56;;;;;;;;;;;;;;;22.31;74.52;98080.78;1738461;82;20381;-85
2021/07/16 06:21:28;;;;;;;;;;;;;;;22.31;74.49;98080.78;1740791;82;25927;-85
2021/07/16 06:23:55;;;;;;;;;;;;;;;22.33;74.41;98084.89;1738745;82;22114;-84
2021/07/16 06:26:21;;;;;;;;;;;;;;;22.43;74.34;98082.73;1738946;82;26128;-85
2021/07/16 06:28:46;;;;;;;;;;;;;;;22.52;74.30;98068.77;1741555;82;20856;-88
2021/07/16 06:31:12;;;;;;;;;;;;;;;22.53;74.27;98071.73;1735002;82;20887;-88
2021/07/16 06:33:39;;;;;;;;;;;;;;;22.49;74.19;98078.47;1739932;82;25093;-88
2021/07/16 06:36:05;;;;;;;;;;;;;;;22.52;74.17;98073.61;1735814;82;22118;-88
2021/07/16 06:38:33;;;;;;;;;;;;;;;22.60;74.17;98069.95;1743582;81;26157;-87
2021/07/16 06:41:11;;;;;;;;;;;;;;;22.64;74.09;98061.08;1739491;82;25795;-87
2021/07/16 06:43:40;;;;;;;;;;;;;;;22.69;74.02;98065.33;1742805;82;20271;-87
2021/07/16 06:46:08;;;;;;;;;;;;;;;22.78;73.99;98073.53;1736006;82;24956;-87
2021/07/16 06:48:34;;;;;;;;;;;;;;;22.84;73.94;98069.59;1739099;82;22163;-87
2021/07/16 06:51:01;;;;;;;;;;;;;;;22.86;73.85;98070.20;1694552;84;21110;-87
2021/07/16 06:53:27;;;;;;;;;;;;;;;22.89;73.81;98070.34;1691576;84;24419;-88
2021/07/16 06:55:59;;;;;;;;;;;;;;;22.93;73.78;98071.09;1741546;82;20325;-87
2021/07/16 06:58:25;;;;;;;;;;;;;;;22.96;73.72;98067.73;1753884;80;25027;-87
2021/07/16 07:00:50;;;;;;;;;;;;;;;23.00;73.68;98065.80;1778464;79;20401;-87
2021/07/16 07:03:17;;;;;;;;;;;;;;;23.07;73.60;98075.20;1772709;80;25990;-86
2021/07/16 07:05:43;;;;;;;;;;;;;;;23.06;73.52;98073.03;1779086;80;25297;-87
2021/07/16 07:08:09;;;;;;;;;;;;;;;23.08;73.42;98072.81;1779392;80;20306;-87
2021/07/16 07:10:40;;;;;;;;;;;;;;;23.09;73.36;98069.13;1776127;80;25721;-87
2021/07/16 07:13:09;;;;;;;;;;;;;;;23.10;73.33;98076.95;1773023;80;22040;-87
2021/07/16 07:15:36;;;;;;;;;;;;;;;23.15;73.32;98072.36;1777593;80;26094;-87
2021/07/16 07:18:06;;;;;;;;;;;;;;;23.19;73.30;98066.43;1743484;80;24762;-87
2021/07/16 07:20:33;;;;;;;;;;;;;;;23.23;73.27;98068.22;1777846;80;20516;-87
2021/07/16 07:23:02;;;;;;;;;;;;;;;23.23;73.18;98070.38;1773914;80;25113;-87
2021/07/16 07:25:28;;;;;;;;;;;;;;;23.20;73.14;98074.77;1773297;80;22063;-87
2021/07/16 07:27:54;;;;;;;;;;;;;;;23.22;73.10;98066.05;1776293;79;25951;-87
2021/07/16 07:30:29;;;;;;;;;;;;;;;23.23;73.06;98072.23;1779325;79;20468;-87
2021/07/16 07:33:04;;;;;;;;;;;;;;;23.19;72.98;98069.10;1772347;80;20447;-87
2021/07/16 07:35:32;;;;;;;;;;;;;;;23.17;72.90;98070.33;1773782;80;25086;-87
2021/07/16 07:38:03;;;;;;;;;;;;;;;23.25;72.90;98073.66;1772591;80;21967;-87
2021/07/16 07:40:32;;;;;;;;;;;;;;;23.32;72.91;98069.70;1775285;80;26897;-87
2021/07/16 07:43:01;;;;;;;;;;;;;;;23.46;72.93;98071.44;1777142;80;24488;-87
2021/07/16 07:45:33;;;;;;;;;;;;;;;23.54;72.94;98071.30;1776102;79;20172;-87
2021/07/16 07:47:59;;;;;;;;;;;;;;;23.59;72.89;98075.53;1775690;79;25070;-87
2021/07/16 07:50:25;;;;;;;;;;;;;;;23.62;72.82;98073.78;1777375;79;20889;-87
2021/07/16 07:52:52;;;;;;;;;;;;;;;23.61;72.68;98077.51;1780134;80;26067;-87
2021/07/16 07:55:20;;;;;;;;;;;;;;;23.59;72.56;98079.54;1773433;80;25259;-87
2021/07/16 07:57:54;;;;;;;;;;;;;;;23.60;72.47;98084.38;1776344;80;20181;-87
2021/07/16 08:00:26;;;;;;;;;;;;;;;23.59;72.38;98089.40;1740082;81;25093;-87
2021/07/16 08:02:50;;;;;;;;;;;;;;;23.61;72.38;98089.53;1742894;80;22000;-87
2021/07/16 08:05:17;;;;;;;;;;;;;;;23.69;72.34;98087.19;1739284;81;26655;-87
2021/07/16 08:07:45;;;;;;;;;;;;;;;23.75;72.33;98091.73;1744791;81;24530;-87
2021/07/16 08:10:18;;;;;;;;;;;;;;;23.85;72.32;98095.37;1737665;81;20351;-87
2021/07/16 08:12:43;;;;;;;;;;;;;;;23.86;72.29;98095.17;1736410;81;25166;-87
2021/07/16 08:15:09;;;;;;;;;;;;;;;23.93;72.31;98096.03;1739361;81;22056;-87
2021/07/16 08:17:35;;;;;;;;;;;;;;;23.99;72.31;98101.92;1745678;81;26007;-87
2021/07/16 08:20:02;;;;;;;;;;;;;;;24.09;72.25;98096.19;1734397;81;20889;-87
2021/07/16 08:22:28;;;;;;;;;;;;;;;24.12;72.18;98101.13;1733150;81;20193;-87
2021/07/16 08:24:54;;;;;;;;;;;;;;;24.20;72.18;98105.00;1742571;81;20237;-86
2021/07/16 08:27:20;;;;;;;;;;;;;;;24.28;72.13;98105.31;1732298;81;20837;-87
2021/07/16 08:29:47;;;;;;;;;;;;;;;24.37;72.05;98106.28;1734245;81;20979;-87
2021/07/16 08:32:13;;;;;;;;;;;;;;;24.46;71.94;98110.41;1732747;81;24498;-86
2021/07/16 08:34:39;;;;;;;;;;;;;;;24.53;71.87;98107.75;1735009;81;20259;-87
2021/07/16 08:37:05;;;;;;;;;;;;;;;24.57;71.75;98112.48;1739673;81;25012;-87
2021/07/16 08:39:35;;;;;;;;;;;;;;;24.66;71.67;98111.77;1744301;81;20276;-87
2021/07/16 08:42:05;;;;;;;;;;;;;;;24.77;71.56;98110.33;1726128;81;22863;-87
2021/07/16 08:44:31;;;;;;;;;;;;;;;24.87;71.48;98118.30;1736728;81;20836;-87
2021/07/16 08:46:57;;;;;;;;;;;;;;;24.91;71.34;98116.05;1737028;81;20339;-87
2021/07/16 08:49:24;;;;;;;;;;;;;;;24.89;71.20;98120.77;1745854;81;20224;-87
2021/07/16 08:51:50;;;;;;;;;;;;;;;24.84;71.02;98117.34;1742991;81;22048;-87
2021/07/16 08:54:18;;;;;;;;;;;;;;;24.87;70.92;98120.14;1738204;81;26033;-87
2021/07/16 08:56:45;;;;;;;;;;;;;;;24.98;70.86;98116.34;1738825;81;24606;-87
2021/07/16 08:59:13;;;;;;;;;;;;;;;25.02;70.82;98120.78;1740373;81;20442;-87
2021/07/16 09:01:44;;;;;;;;;;;;;;;24.93;70.65;98122.83;1748828;80;25715;-87
2021/07/16 09:04:12;;;;;;;;;;;;;;;24.93;70.55;98120.16;1745397;82;22231;-87
2021/07/16 09:06:48;;;;;;;;;;;;;;;25.13;70.60;98121.50;1747685;82;26061;-87
2021/07/16 09:09:17;;;;;;;;;;;;;;;25.24;70.57;98120.05;1748061;82;25214;-87
2021/07/16 09:11:45;;;;;;;;;;;;;;;25.31;70.51;98113.63;1717716;82;20255;-87
2021/07/16 09:14:19;;;;;;;;;;;;;;;25.35;70.41;98109.53;1748464;82;24995;-87
2021/07/16 09:16:58;;;;;;;;;;;;;;;25.39;70.36;98104.56;1746308;82;22002;-87
2021/07/16 09:19:30;;;;;;;;;;;;;;;25.49;70.35;98102.78;1746609;82;26858;-87
2021/07/16 09:22:00;;;;;;;;;;;;;;;25.55;70.22;98102.78;1745788;82;24468;-86
2021/07/16 09:24:27;;;;;;;;;;;;;;;25.55;70.05;98099.27;1745107;82;20212;-87
2021/07/16 09:26:53;;;;;;;;;;;;;;;25.61;69.99;98092.59;1747199;82;24950;-87
2021/07/16 09:29:28;;;;;;;;;;;;;;;25.69;69.88;98095.56;1716398;82;20254;-87
2021/07/16 09:32:02;;;;;;;;;;;;;;;25.70;69.71;98100.69;1745060;82;26184;-87
2021/07/16 09:34:28;;;;;;;;;;;;;;;25.72;69.55;98101.83;1745252;82;24422;-87
2021/07/16 09:36:54;;;;;;;;;;;;;;;25.76;69.42;98101.19;1744325;82;20592;-87
2021/07/16 09:39:24;;;;;;;;;;;;;;;25.80;69.32;98100.27;1745144;82;25110;-87
2021/07/16 09:41:59;;;;;;;;;;;;;;;25.80;69.15;98098.93;1744751;82;22397;-87
2021/07/16 09:44:35;;;;;;;;;;;;;;;25.96;69.06;98099.80;1744291;82;26284;-87
2021/07/16 09:47:16;;;;;;;;;;;;;;;25.98;68.87;98095.53;1746630;82;24417;-87
2021/07/16 09:49:42;;;;;;;;;;;;;;;25.99;68.66;98093.16;1746462;82;20450;-86
2021/07/16 09:52:13;;;;;;;;;;;;;;;26.06;68.52;98093.45;1743083;82;24422;-86
2021/07/16 09:54:41;;;;;;;;;;;;;;;26.28;68.54;98091.82;1747095;82;21978;-87
2021/07/16 09:57:10;;;;;;;;;;;;;;;26.48;68.50;98096.53;1741792;82;26042;-87
2021/07/16 09:59:45;;;;;;;;;;;;;;;26.58;68.37;98093.67;1754998;80;20479;-86
2021/07/16 10:02:13;;;;;;;;;;;;;;;26.67;68.25;98093.42;1746832;80;20618;-87
2021/07/16 10:04:39;;;;;;;;;;;;;;;26.78;68.18;98093.55;1770208;79;25030;-87
2021/07/16 10:07:07;;;;;;;;;;;;;;;26.83;68.03;98088.86;1746106;80;22146;-87
2021/07/16 10:09:33;;;;;;;;;;;;;;;26.87;67.91;98087.37;1778024;80;26043;-86
2021/07/16 10:12:00;;;;;;;;;;;;;;;26.92;67.78;98094.28;1779758;79;24534;-87
2021/07/16 10:14:32;;;;;;;;;;;;;;;26.98;67.67;98090.20;1774850;80;20217;-87
2021/07/16 10:16:59;;;;;;;;;;;;;;;26.97;67.46;98084.52;1778466;80;24934;-86
2021/07/16 10:19:25;;;;;;;;;;;;;;;26.95;67.28;98077.20;1776308;80;22038;-87
2021/07/16 10:21:52;;;;;;;;;;;;;;;26.95;67.09;98066.97;1772277;80;26197;-87
2021/07/16 10:24:26;;;;;;;;;;;;;;;26.97;67.00;98068.92;1779453;80;24656;-87
2021/07/16 10:26:52;;;;;;;;;;;;;;;26.99;66.81;98074.39;1767739;80;20269;-87
2021/07/16 10:29:37;;;;;;;;;;;;;;;26.95;66.49;98071.00;1777341;80;25037;-86
2021/07/16 10:32:05;;;;;;;;;;;;;;;26.91;66.25;98075.17;1773466;79;22156;-89
2021/07/16 10:34:33;;;;;;;;;;;;;;;26.89;66.00;98071.39;1774477;79;26838;-87
2021/07/16 10:37:02;;;;;;;;;;;;;;;26.88;65.83;98071.60;1778468;80;24629;-87
2021/07/16 10:39:50;;;;;;;;;;;;;;;26.90;65.81;98075.69;1771984;80;20256;-87
2021/07/16 10:42:30;;;;;;;;;;;;;;;26.93;65.72;98075.27;1774604;79;25860;-88
2021/07/16 10:44:58;;;;;;;;;;;;;;;26.95;65.62;98080.40;1771649;79;21809;-87
2021/07/16 10:47:35;;;;;;;;;;;;;;;27.05;65.61;98077.55;1778251;79;26002;-87
2021/07/16 10:50:02;;;;;;;;;;;;;;;27.24;65.67;98078.38;1775695;79;25539;-88
2021/07/16 10:52:48;;;;;;;;;;;;;;;27.25;65.43;98075.17;1774901;80;20247;-88
2021/07/16 10:55:16;;;;;;;;;;;;;;;27.35;65.28;98074.14;1772516;79;25791;-87
2021/07/16 10:57:45;;;;;;;;;;;;;;;27.52;65.24;98070.38;1776009;80;22924;-88
2021/07/16 11:00:14;;;;;;;;;;;;;;;27.68;65.22;98075.97;1754035;80;27043;-88
2021/07/16 11:02:43;;;;;;;;;;;;;;;27.73;65.03;98077.98;1736915;80;25305;-87
2021/07/16 11:05:28;;;;;;;;;;;;;;;27.86;64.92;98079.19;1745926;82;20215;-88
2021/07/16 11:07:54;;;;;;;;;;;;;;;27.84;64.68;98080.74;1736204;82;25031;-88
2021/07/16 11:10:39;;;;;;;;;;;;;;;27.88;64.52;98069.82;1745437;82;22010;-88
2021/07/16 11:13:23;;;;;;;;;;;;;;;27.95;64.38;98076.47;1744078;82;26055;-85
2021/07/16 11:15:49;;;;;;;;;;;;;;;28.00;64.20;98065.02;1744692;82;24417;-87
2021/07/16 11:18:26;;;;;;;;;;;;;;;28.12;64.14;98065.41;1744689;82;20231;-87
2021/07/16 11:20:52;;;;;;;;;;;;;;;28.07;63.92;98067.11;1745406;82;25869;-88
2021/07/16 11:23:32;;;;;;;;;;;;;;;28.00;63.73;98062.34;1746091;82;20242;-87
2021/07/16 11:25:58;;;;;;;;;;;;;;;27.96;63.54;98065.19;1634953;86;26055;-88
2021/07/16 11:28:24;;;;;;;;;;;;;;;27.89;63.27;98066.09;1634998;87;20229;-88
2021/07/16 11:30:51;;;;;;;;;;;;;;;27.75;62.90;98063.80;1744163;82;21076;-87
2021/07/16 11:33:19;;;;;;;;;;;;;;;27.70;62.69;98067.17;1746686;81;24995;-87
2021/07/16 11:35:47;;;;;;;;;;;;;;;27.85;62.66;98064.09;1750018;81;22166;-88
2021/07/16 11:38:13;;;;;;;;;;;;;;;28.08;62.72;98064.72;1746283;82;26256;-88
2021/07/16 11:40:40;;;;;;;;;;;;;;;28.20;62.70;98064.28;1745750;82;24489;-87
2021/07/16 11:43:07;;;;;;;;;;;;;;;28.23;62.60;98066.50;1749309;82;20226;-88
2021/07/16 11:45:34;;;;;;;;;;;;;;;28.16;62.43;98061.21;1740785;82;25032;-88
2021/07/16 11:48:02;;;;;;;;;;;;;;;28.20;62.39;98062.39;1745118;82;21960;-88
2021/07/16 11:50:28;;;;;;;;;;;;;;;28.30;62.39;98057.82;1746178;80;26092;-87
2021/07/16 11:52:55;;;;;;;;;;;;;;;28.45;62.46;98061.42;1745949;82;20356;-88
2021/07/16 11:55:26;;;;;;;;;;;;;;;28.60;62.40;98064.50;1746214;81;20245;-88
2021/07/16 11:57:59;;;;;;;;;;;;;;;28.71;62.28;98056.45;1744640;82;25016;-87
2021/07/16 12:00:26;;;;;;;;;;;;;;;28.79;62.10;98054.50;1724393;81;21882;-88
2021/07/16 12:03:08;;;;;;;;;;;;;;;28.84;61.92;98053.28;1762627;80;26038;-88
2021/07/16 12:05:47;;;;;;;;;;;;;;;28.88;61.72;98056.61;1761763;81;24537;-89
2021/07/16 12:08:14;;;;;;;;;;;;;;;28.86;61.42;98053.32;1759471;81;20405;-89
2021/07/16 12:10:40;;;;;;;;;;;;;;;28.70;60.97;98061.53;1761408;81;24956;-89
2021/07/16 12:13:07;;;;;;;;;;;;;;;28.61;60.75;98061.58;1760312;80;20439;-88
2021/07/16 12:15:33;;;;;;;;;;;;;;;28.58;60.68;98059.89;1761223;81;25948;-88
2021/07/16 12:18:00;;;;;;;;;;;;;;;28.49;60.55;98055.86;1762311;81;24494;-88
2021/07/16 12:20:35;;;;;;;;;;;;;;;28.43;60.51;98058.95;1762834;81;20199;-89
2021/07/16 12:23:05;;;;;;;;;;;;;;;28.43;60.51;98058.95;1761190;79;25805;-89
2021/07/16 12:25:35;;;;;;;;;;;;;;;28.53;60.58;98063.25;1757654;81;22685;-88
2021/07/16 12:28:24;;;;;;;;;;;;;;;28.58;60.50;98049.94;1763768;81;26061;-88
2021/07/16 12:30:51;;;;;;;;;;;;;;;28.66;60.36;98053.62;1763038;81;24654;-88
2021/07/16 12:33:18;;;;;;;;;;;;;;;28.67;60.13;98052.58;1760241;81;20242;-88
2021/07/16 12:35:45;;;;;;;;;;;;;;;28.69;60.02;98046.42;1762040;81;25778;-88
2021/07/16 12:38:13;;;;;;;;;;;;;;;28.69;59.84;98046.42;1763186;81;22011;-88
2021/07/16 12:40:41;;;;;;;;;;;;;;;28.79;59.71;98045.08;1735974;81;25999;-88
2021/07/16 12:43:09;;;;;;;;;;;;;;;28.88;59.60;98035.06;1763917;81;24450;-88
2021/07/16 12:45:37;;;;;;;;;;;;;;;28.93;59.41;98036.52;1759597;81;20241;-88
2021/07/16 12:48:10;;;;;;;;;;;;;;;28.95;59.06;98036.30;1762600;80;25273;-88
2021/07/16 12:50:37;;;;;;;;;;;;;;;29.05;58.90;98035.19;1734080;81;21999;-88
2021/07/16 12:53:06;;;;;;;;;;;;;;;29.19;58.80;98035.75;1761381;80;25949;-88
2021/07/16 12:55:34;;;;;;;;;;;;;;;29.35;58.71;98024.30;1763161;81;24402;-89